sensor_id;sensor_type;location;lat;lon;timestamp;temperature;humidity
69084;SHT31;56185;48.526;9.044;2022-11-14T00:01:24;2.91;87.38
69084;SHT31;56185;48.526;9.044;2022-11-14T00:03:49;2.92;86.72
69084;SHT31;56185;48.526;9.044;2022-11-14T00:06:14;2.99;86.25
69084;SHT31;56185;48.526;9.044;2022-11-14T00:08:39;2.88;87.00
69084;SHT31;56185;48.526;9.044;2022-11-14T00:11:05;2.88;86.53
69084;SHT31;56185;48.526;9.044;2022-11-14T00:13:30;2.84;86.63
69084;SHT31;56185;48.526;9.044;2022-11-14T00:15:55;2.81;87.51
69084;SHT31;56185;48.526;9.044;2022-11-14T00:18:21;2.78;86.85
69084;SHT31;56185;48.526;9.044;2022-11-14T00:20:51;2.68;87.62
69084;SHT31;56185;48.526;9.044;2022-11-14T00:23:17;2.80;87.44
69084;SHT31;56185;48.526;9.044;2022-11-14T00:25:43;2.92;86.94
69084;SHT31;56185;48.526;9.044;2022-11-14T00:28:09;2.83;86.99
69084;SHT31;56185;48.526;9.044;2022-11-14T00:30:34;2.71;87.59
69084;SHT31;56185;48.526;9.044;2022-11-14T00:32:59;2.64;87.53
69084;SHT31;56185;48.526;9.044;2022-11-14T00:35:25;2.68;87.61
69084;SHT31;56185;48.526;9.044;2022-11-14T00:37:50;2.68;87.41
69084;SHT31;56185;48.526;9.044;2022-11-14T00:40:15;2.64;87.21
69084;SHT31;56185;48.526;9.044;2022-11-14T00:42:41;2.67;86.93
69084;SHT31;56185;48.526;9.044;2022-11-14T00:45:06;2.65;87.15
69084;SHT31;56185;48.526;9.044;2022-11-14T00:47:31;2.62;87.19
69084;SHT31;56185;48.526;9.044;2022-11-14T00:49:57;2.56;87.27
69084;SHT31;56185;48.526;9.044;2022-11-14T00:52:22;2.56;87.45
69084;SHT31;56185;48.526;9.044;2022-11-14T00:54:47;2.61;87.33
69084;SHT31;56185;48.526;9.044;2022-11-14T00:57:12;2.83;86.56
69084;SHT31;56185;48.526;9.044;2022-11-14T00:59:38;2.84;86.29
69084;SHT31;56185;48.526;9.044;2022-11-14T01:02:03;2.78;86.14
69084;SHT31;56185;48.526;9.044;2022-11-14T01:04:28;2.70;86.32
69084;SHT31;56185;48.526;9.044;2022-11-14T01:06:53;2.70;86.38
69084;SHT31;56185;48.526;9.044;2022-11-14T01:09:19;2.71;86.08
69084;SHT31;56185;48.526;9.044;2022-11-14T01:11:44;2.78;86.04
69084;SHT31;56185;48.526;9.044;2022-11-14T01:14:09;2.68;85.62
69084;SHT31;56185;48.526;9.044;2022-11-14T01:16:34;2.62;85.30
69084;SHT31;56185;48.526;9.044;2022-11-14T01:19:01;2.56;84.44
69084;SHT31;56185;48.526;9.044;2022-11-14T01:21:26;2.73;84.86
69084;SHT31;56185;48.526;9.044;2022-11-14T01:23:51;2.50;85.15
69084;SHT31;56185;48.526;9.044;2022-11-14T01:26:17;2.34;84.97
69084;SHT31;56185;48.526;9.044;2022-11-14T01:28:42;2.43;84.73
69084;SHT31;56185;48.526;9.044;2022-11-14T01:31:22;2.30;84.38
69084;SHT31;56185;48.526;9.044;2022-11-14T01:33:52;2.26;85.07
69084;SHT31;56185;48.526;9.044;2022-11-14T01:36:18;2.36;85.39
69084;SHT31;56185;48.526;9.044;2022-11-14T01:38:44;2.33;85.22
69084;SHT31;56185;48.526;9.044;2022-11-14T01:41:14;2.44;85.27
69084;SHT31;56185;48.526;9.044;2022-11-14T01:43:40;2.54;84.82
69084;SHT31;56185;48.526;9.044;2022-11-14T01:46:13;2.33;85.37
69084;SHT31;56185;48.526;9.044;2022-11-14T01:48:46;2.41;85.23
69084;SHT31;56185;48.526;9.044;2022-11-14T01:51:33;2.37;85.76
69084;SHT31;56185;48.526;9.044;2022-11-14T01:54:03;2.34;86.43
69084;SHT31;56185;48.526;9.044;2022-11-14T01:56:59;2.20;87.93
69084;SHT31;56185;48.526;9.044;2022-11-14T01:59:29;2.36;87.34
69084;SHT31;56185;48.526;9.044;2022-11-14T02:01:56;2.16;87.46
69084;SHT31;56185;48.526;9.044;2022-11-14T02:04:27;2.25;87.68
69084;SHT31;56185;48.526;9.044;2022-11-14T02:06:57;2.23;87.75
69084;SHT31;56185;48.526;9.044;2022-11-14T02:09:23;2.43;87.56
69084;SHT31;56185;48.526;9.044;2022-11-14T02:11:50;2.36;87.72
69084;SHT31;56185;48.526;9.044;2022-11-14T02:14:17;2.34;87.95
69084;SHT31;56185;48.526;9.044;2022-11-14T02:16:42;2.27;88.16
69084;SHT31;56185;48.526;9.044;2022-11-14T02:19:08;2.40;87.79
69084;SHT31;56185;48.526;9.044;2022-11-14T02:21:33;2.41;87.51
69084;SHT31;56185;48.526;9.044;2022-11-14T02:23:59;2.37;87.90
69084;SHT31;56185;48.526;9.044;2022-11-14T02:26:24;2.34;87.94
69084;SHT31;56185;48.526;9.044;2022-11-14T02:28:49;2.29;87.90
69084;SHT31;56185;48.526;9.044;2022-11-14T02:31:15;2.41;87.60
69084;SHT31;56185;48.526;9.044;2022-11-14T02:33:40;2.44;87.37
69084;SHT31;56185;48.526;9.044;2022-11-14T02:36:06;2.46;87.32
69084;SHT31;56185;48.526;9.044;2022-11-14T02:38:32;2.71;86.06
69084;SHT31;56185;48.526;9.044;2022-11-14T02:41:00;2.54;87.43
69084;SHT31;56185;48.526;9.044;2022-11-14T02:43:26;2.56;87.04
69084;SHT31;56185;48.526;9.044;2022-11-14T02:45:51;2.54;87.44
69084;SHT31;56185;48.526;9.044;2022-11-14T02:48:17;2.43;87.15
69084;SHT31;56185;48.526;9.044;2022-11-14T02:50:42;2.47;86.68
69084;SHT31;56185;48.526;9.044;2022-11-14T02:53:07;2.41;87.41
69084;SHT31;56185;48.526;9.044;2022-11-14T02:55:33;2.37;87.58
69084;SHT31;56185;48.526;9.044;2022-11-14T02:57:58;2.27;87.63
69084;SHT31;56185;48.526;9.044;2022-11-14T03:00:23;2.25;88.37
69084;SHT31;56185;48.526;9.044;2022-11-14T03:02:48;2.12;88.45
69084;SHT31;56185;48.526;9.044;2022-11-14T03:05:14;2.02;88.22
69084;SHT31;56185;48.526;9.044;2022-11-14T03:07:39;2.22;87.55
69084;SHT31;56185;48.526;9.044;2022-11-14T03:10:05;2.15;87.60
69084;SHT31;56185;48.526;9.044;2022-11-14T03:12:30;2.22;87.60
69084;SHT31;56185;48.526;9.044;2022-11-14T03:14:55;2.19;87.38
69084;SHT31;56185;48.526;9.044;2022-11-14T03:17:21;2.22;87.47
69084;SHT31;56185;48.526;9.044;2022-11-14T03:19:46;2.19;87.96
69084;SHT31;56185;48.526;9.044;2022-11-14T03:22:11;2.32;87.49
69084;SHT31;56185;48.526;9.044;2022-11-14T03:24:36;2.44;87.52
69084;SHT31;56185;48.526;9.044;2022-11-14T03:27:02;2.26;87.88
69084;SHT31;56185;48.526;9.044;2022-11-14T03:29:27;2.33;87.85
69084;SHT31;56185;48.526;9.044;2022-11-14T03:31:52;2.22;88.00
69084;SHT31;56185;48.526;9.044;2022-11-14T03:34:17;2.25;88.35
69084;SHT31;56185;48.526;9.044;2022-11-14T03:36:42;2.22;88.12
69084;SHT31;56185;48.526;9.044;2022-11-14T03:39:08;2.29;87.81
69084;SHT31;56185;48.526;9.044;2022-11-14T03:41:33;2.34;87.57
69084;SHT31;56185;48.526;9.044;2022-11-14T03:43:58;2.30;87.26
69084;SHT31;56185;48.526;9.044;2022-11-14T03:46:23;2.44;86.89
69084;SHT31;56185;48.526;9.044;2022-11-14T03:48:49;2.25;87.22
69084;SHT31;56185;48.526;9.044;2022-11-14T03:51:14;2.37;87.08
69084;SHT31;56185;48.526;9.044;2022-11-14T03:53:39;2.26;87.23
69084;SHT31;56185;48.526;9.044;2022-11-14T03:56:05;2.33;86.51
69084;SHT31;56185;48.526;9.044;2022-11-14T03:58:30;2.29;86.24
69084;SHT31;56185;48.526;9.044;2022-11-14T04:00:55;2.10;87.26
69084;SHT31;56185;48.526;9.044;2022-11-14T04:03:22;1.78;88.37
69084;SHT31;56185;48.526;9.044;2022-11-14T04:05:48;2.06;88.06
69084;SHT31;56185;48.526;9.044;2022-11-14T04:08:13;2.10;87.76
69084;SHT31;56185;48.526;9.044;2022-11-14T04:10:39;2.13;88.27
69084;SHT31;56185;48.526;9.044;2022-11-14T04:13:04;2.06;88.54
69084;SHT31;56185;48.526;9.044;2022-11-14T04:15:29;2.16;88.28
69084;SHT31;56185;48.526;9.044;2022-11-14T04:17:54;2.15;88.85
69084;SHT31;56185;48.526;9.044;2022-11-14T04:20:20;2.20;88.42
69084;SHT31;56185;48.526;9.044;2022-11-14T04:22:45;2.30;87.33
69084;SHT31;56185;48.526;9.044;2022-11-14T04:25:10;2.29;87.64
69084;SHT31;56185;48.526;9.044;2022-11-14T04:27:36;2.33;87.33
69084;SHT31;56185;48.526;9.044;2022-11-14T04:30:03;2.38;87.46
69084;SHT31;56185;48.526;9.044;2022-11-14T04:32:29;2.38;87.09
69084;SHT31;56185;48.526;9.044;2022-11-14T04:34:54;2.29;88.59
69084;SHT31;56185;48.526;9.044;2022-11-14T04:37:19;2.27;88.40
69084;SHT31;56185;48.526;9.044;2022-11-14T04:39:45;2.38;87.77
69084;SHT31;56185;48.526;9.044;2022-11-14T04:42:10;2.38;87.19
69084;SHT31;56185;48.526;9.044;2022-11-14T04:44:35;2.43;86.79
69084;SHT31;56185;48.526;9.044;2022-11-14T04:47:00;2.29;87.34
69084;SHT31;56185;48.526;9.044;2022-11-14T04:49:26;2.26;87.65
69084;SHT31;56185;48.526;9.044;2022-11-14T04:51:51;2.30;87.70
69084;SHT31;56185;48.526;9.044;2022-11-14T04:54:16;2.26;87.62
69084;SHT31;56185;48.526;9.044;2022-11-14T04:56:41;2.46;87.14
69084;SHT31;56185;48.526;9.044;2022-11-14T04:59:07;2.38;87.52
69084;SHT31;56185;48.526;9.044;2022-11-14T05:01:32;2.44;87.60
69084;SHT31;56185;48.526;9.044;2022-11-14T05:03:57;2.25;87.48
69084;SHT31;56185;48.526;9.044;2022-11-14T05:06:23;2.30;87.01
69084;SHT31;56185;48.526;9.044;2022-11-14T05:08:48;2.32;87.32
69084;SHT31;56185;48.526;9.044;2022-11-14T05:11:14;2.22;88.35
69084;SHT31;56185;48.526;9.044;2022-11-14T05:13:40;2.34;88.02
69084;SHT31;56185;48.526;9.044;2022-11-14T05:16:05;2.38;87.84
69084;SHT31;56185;48.526;9.044;2022-11-14T05:18:30;2.54;87.35
69084;SHT31;56185;48.526;9.044;2022-11-14T05:20:59;2.53;87.13
69084;SHT31;56185;48.526;9.044;2022-11-14T05:23:26;2.56;87.38
69084;SHT31;56185;48.526;9.044;2022-11-14T05:26:18;2.67;86.92
69084;SHT31;56185;48.526;9.044;2022-11-14T05:28:44;2.50;87.31
69084;SHT31;56185;48.526;9.044;2022-11-14T05:31:11;2.32;88.00
69084;SHT31;56185;48.526;9.044;2022-11-14T05:33:36;2.36;88.63
69084;SHT31;56185;48.526;9.044;2022-11-14T05:36:07;2.33;88.44
69084;SHT31;56185;48.526;9.044;2022-11-14T05:38:33;2.36;88.57
69084;SHT31;56185;48.526;9.044;2022-11-14T05:40:58;2.40;88.62
69084;SHT31;56185;48.526;9.044;2022-11-14T05:43:24;2.56;88.08
69084;SHT31;56185;48.526;9.044;2022-11-14T05:45:49;2.50;87.53
69084;SHT31;56185;48.526;9.044;2022-11-14T05:48:15;2.56;87.30
69084;SHT31;56185;48.526;9.044;2022-11-14T05:50:40;2.50;87.65
69084;SHT31;56185;48.526;9.044;2022-11-14T05:53:05;2.46;87.63
69084;SHT31;56185;48.526;9.044;2022-11-14T05:55:30;2.57;87.28
69084;SHT31;56185;48.526;9.044;2022-11-14T05:57:59;2.61;87.02
69084;SHT31;56185;48.526;9.044;2022-11-14T06:00:25;2.62;87.05
69084;SHT31;56185;48.526;9.044;2022-11-14T06:02:54;2.65;86.77
69084;SHT31;56185;48.526;9.044;2022-11-14T06:05:20;2.53;87.18
69084;SHT31;56185;48.526;9.044;2022-11-14T06:07:46;2.47;87.61
69084;SHT31;56185;48.526;9.044;2022-11-14T06:10:11;2.40;88.27
69084;SHT31;56185;48.526;9.044;2022-11-14T06:12:36;2.41;88.16
69084;SHT31;56185;48.526;9.044;2022-11-14T06:15:02;2.38;88.47
69084;SHT31;56185;48.526;9.044;2022-11-14T06:17:27;2.40;89.29
69084;SHT31;56185;48.526;9.044;2022-11-14T06:19:52;2.51;88.54
69084;SHT31;56185;48.526;9.044;2022-11-14T06:22:18;2.46;88.71
69084;SHT31;56185;48.526;9.044;2022-11-14T06:24:43;2.57;88.50
69084;SHT31;56185;48.526;9.044;2022-11-14T06:27:08;2.64;87.52
69084;SHT31;56185;48.526;9.044;2022-11-14T06:29:33;2.58;88.30
69084;SHT31;56185;48.526;9.044;2022-11-14T06:31:59;2.62;87.93
69084;SHT31;56185;48.526;9.044;2022-11-14T06:34:24;2.64;88.02
69084;SHT31;56185;48.526;9.044;2022-11-14T06:36:49;2.74;88.13
69084;SHT31;56185;48.526;9.044;2022-11-14T06:39:14;2.94;86.68
69084;SHT31;56185;48.526;9.044;2022-11-14T06:41:39;2.96;86.60
69084;SHT31;56185;48.526;9.044;2022-11-14T06:44:06;2.83;86.28
69084;SHT31;56185;48.526;9.044;2022-11-14T06:46:32;2.67;87.01
69084;SHT31;56185;48.526;9.044;2022-11-14T06:48:57;2.81;86.61
69084;SHT31;56185;48.526;9.044;2022-11-14T06:51:22;2.80;86.71
69084;SHT31;56185;48.526;9.044;2022-11-14T06:53:48;2.92;86.41
69084;SHT31;56185;48.526;9.044;2022-11-14T06:56:15;3.02;86.30
69084;SHT31;56185;48.526;9.044;2022-11-14T06:58:43;2.96;86.37
69084;SHT31;56185;48.526;9.044;2022-11-14T07:01:20;2.81;86.85
69084;SHT31;56185;48.526;9.044;2022-11-14T07:03:46;2.77;86.85
69084;SHT31;56185;48.526;9.044;2022-11-14T07:06:14;2.74;87.40
69084;SHT31;56185;48.526;9.044;2022-11-14T07:08:40;2.70;87.59
69084;SHT31;56185;48.526;9.044;2022-11-14T07:13:31;2.75;86.97
69084;SHT31;56185;48.526;9.044;2022-11-14T07:15:57;2.81;87.27
69084;SHT31;56185;48.526;9.044;2022-11-14T07:18:22;2.85;87.41
69084;SHT31;56185;48.526;9.044;2022-11-14T07:20:47;2.94;87.64
69084;SHT31;56185;48.526;9.044;2022-11-14T07:23:13;2.95;87.43
69084;SHT31;56185;48.526;9.044;2022-11-14T07:25:39;3.04;86.30
69084;SHT31;56185;48.526;9.044;2022-11-14T07:28:04;3.13;86.94
69084;SHT31;56185;48.526;9.044;2022-11-14T07:30:29;3.16;86.77
69084;SHT31;56185;48.526;9.044;2022-11-14T07:32:56;3.05;86.94
69084;SHT31;56185;48.526;9.044;2022-11-14T07:35:22;3.16;86.97
69084;SHT31;56185;48.526;9.044;2022-11-14T07:37:48;3.13;86.87
69084;SHT31;56185;48.526;9.044;2022-11-14T07:40:13;2.91;87.62
69084;SHT31;56185;48.526;9.044;2022-11-14T07:42:39;3.02;87.93
69084;SHT31;56185;48.526;9.044;2022-11-14T07:45:30;3.09;88.43
69084;SHT31;56185;48.526;9.044;2022-11-14T07:48:00;3.12;87.68
69084;SHT31;56185;48.526;9.044;2022-11-14T07:50:35;3.25;88.81
69084;SHT31;56185;48.526;9.044;2022-11-14T07:53:04;3.12;88.52
69084;SHT31;56185;48.526;9.044;2022-11-14T07:55:29;3.22;89.25
69084;SHT31;56185;48.526;9.044;2022-11-14T07:57:54;3.25;88.73
69084;SHT31;56185;48.526;9.044;2022-11-14T08:00:20;3.16;88.69
69084;SHT31;56185;48.526;9.044;2022-11-14T08:02:45;3.01;89.23
69084;SHT31;56185;48.526;9.044;2022-11-14T08:05:11;3.09;89.27
69084;SHT31;56185;48.526;9.044;2022-11-14T08:07:36;3.13;89.66
69084;SHT31;56185;48.526;9.044;2022-11-14T08:10:02;3.16;89.53
69084;SHT31;56185;48.526;9.044;2022-11-14T08:12:27;3.20;89.78
69084;SHT31;56185;48.526;9.044;2022-11-14T08:14:52;3.22;89.72
69084;SHT31;56185;48.526;9.044;2022-11-14T08:17:19;3.33;89.26
69084;SHT31;56185;48.526;9.044;2022-11-14T08:19:45;3.35;90.51
69084;SHT31;56185;48.526;9.044;2022-11-14T08:22:10;3.27;89.92
69084;SHT31;56185;48.526;9.044;2022-11-14T08:24:35;3.40;90.26
69084;SHT31;56185;48.526;9.044;2022-11-14T08:27:00;3.19;92.28
69084;SHT31;56185;48.526;9.044;2022-11-14T08:29:25;3.32;94.88
69084;SHT31;56185;48.526;9.044;2022-11-14T08:31:51;3.62;95.61
69084;SHT31;56185;48.526;9.044;2022-11-14T08:34:16;3.87;96.24
69084;SHT31;56185;48.526;9.044;2022-11-14T08:36:41;3.83;93.74
69084;SHT31;56185;48.526;9.044;2022-11-14T08:39:06;3.81;92.23
69084;SHT31;56185;48.526;9.044;2022-11-14T08:41:32;3.47;93.58
69084;SHT31;56185;48.526;9.044;2022-11-14T08:43:57;3.66;96.46
69084;SHT31;56185;48.526;9.044;2022-11-14T08:46:22;4.28;98.06
69084;SHT31;56185;48.526;9.044;2022-11-14T08:48:47;5.04;98.42
69084;SHT31;56185;48.526;9.044;2022-11-14T08:51:13;5.35;98.45
69084;SHT31;56185;48.526;9.044;2022-11-14T08:53:38;5.72;98.52
69084;SHT31;56185;48.526;9.044;2022-11-14T08:56:03;5.89;98.51
69084;SHT31;56185;48.526;9.044;2022-11-14T08:58:30;6.09;98.39
69084;SHT31;56185;48.526;9.044;2022-11-14T09:01:03;6.18;97.97
69084;SHT31;56185;48.526;9.044;2022-11-14T09:03:29;6.33;97.68
69084;SHT31;56185;48.526;9.044;2022-11-14T09:05:55;6.34;96.25
69084;SHT31;56185;48.526;9.044;2022-11-14T09:08:21;6.28;93.06
69084;SHT31;56185;48.526;9.044;2022-11-14T09:10:46;6.11;94.45
69084;SHT31;56185;48.526;9.044;2022-11-14T09:13:11;5.96;93.03
69084;SHT31;56185;48.526;9.044;2022-11-14T09:15:37;5.86;92.76
69084;SHT31;56185;48.526;9.044;2022-11-14T09:18:02;5.72;92.54
69084;SHT31;56185;48.526;9.044;2022-11-14T09:20:27;5.94;96.24
69084;SHT31;56185;48.526;9.044;2022-11-14T09:22:52;5.92;94.15
69084;SHT31;56185;48.526;9.044;2022-11-14T09:25:18;5.97;93.17
69084;SHT31;56185;48.526;9.044;2022-11-14T09:27:44;5.79;92.27
69084;SHT31;56185;48.526;9.044;2022-11-14T09:30:09;5.82;92.19
69084;SHT31;56185;48.526;9.044;2022-11-14T09:32:35;5.72;93.33
69084;SHT31;56185;48.526;9.044;2022-11-14T09:35:00;5.87;95.65
69084;SHT31;56185;48.526;9.044;2022-11-14T09:37:25;6.02;95.06
69084;SHT31;56185;48.526;9.044;2022-11-14T09:39:51;6.06;95.32
69084;SHT31;56185;48.526;9.044;2022-11-14T09:45:02;6.38;95.40
69084;SHT31;56185;48.526;9.044;2022-11-14T09:47:41;6.40;94.05
69084;SHT31;56185;48.526;9.044;2022-11-14T09:50:11;6.35;93.97
69084;SHT31;56185;48.526;9.044;2022-11-14T09:52:39;6.52;95.08
69084;SHT31;56185;48.526;9.044;2022-11-14T09:55:11;6.71;94.65
69084;SHT31;56185;48.526;9.044;2022-11-14T09:57:39;6.96;94.99
69084;SHT31;56185;48.526;9.044;2022-11-14T10:00:19;7.10;94.36
69084;SHT31;56185;48.526;9.044;2022-11-14T10:05:35;7.38;93.02
69084;SHT31;56185;48.526;9.044;2022-11-14T10:13:38;7.53;91.36
69084;SHT31;56185;48.526;9.044;2022-11-14T10:16:14;7.57;90.78
69084;SHT31;56185;48.526;9.044;2022-11-14T10:18:54;7.53;90.60
69084;SHT31;56185;48.526;9.044;2022-11-14T10:24:21;7.44;91.69
69084;SHT31;56185;48.526;9.044;2022-11-14T10:27:01;7.53;92.29
69084;SHT31;56185;48.526;9.044;2022-11-14T10:35:00;7.81;91.25
69084;SHT31;56185;48.526;9.044;2022-11-14T10:37:32;7.93;91.76
69084;SHT31;56185;48.526;9.044;2022-11-14T10:42:40;8.10;90.73
69084;SHT31;56185;48.526;9.044;2022-11-14T10:45:25;7.93;92.51
69084;SHT31;56185;48.526;9.044;2022-11-14T10:47:52;8.17;92.24
69084;SHT31;56185;48.526;9.044;2022-11-14T10:50:21;8.03;92.35
69084;SHT31;56185;48.526;9.044;2022-11-14T10:52:51;8.21;92.12
69084;SHT31;56185;48.526;9.044;2022-11-14T10:55:18;8.37;92.24
69084;SHT31;56185;48.526;9.044;2022-11-14T10:57:44;8.46;91.39
69084;SHT31;56185;48.526;9.044;2022-11-14T11:00:15;8.39;91.72
69084;SHT31;56185;48.526;9.044;2022-11-14T11:02:55;8.53;91.41
69084;SHT31;56185;48.526;9.044;2022-11-14T11:05:23;8.60;90.05
69084;SHT31;56185;48.526;9.044;2022-11-14T11:07:49;8.80;90.77
69084;SHT31;56185;48.526;9.044;2022-11-14T11:10:22;8.94;91.70
69084;SHT31;56185;48.526;9.044;2022-11-14T11:12:52;8.91;90.16
69084;SHT31;56185;48.526;9.044;2022-11-14T11:15:27;8.85;89.93
69084;SHT31;56185;48.526;9.044;2022-11-14T11:17:54;8.85;90.84
69084;SHT31;56185;48.526;9.044;2022-11-14T11:23:02;8.85;90.39
69084;SHT31;56185;48.526;9.044;2022-11-14T11:25:29;8.78;91.82
69084;SHT31;56185;48.526;9.044;2022-11-14T11:28:16;8.77;92.27
69084;SHT31;56185;48.526;9.044;2022-11-14T11:30:55;8.81;91.55
69084;SHT31;56185;48.526;9.044;2022-11-14T11:33:47;8.89;91.89
69084;SHT31;56185;48.526;9.044;2022-11-14T11:36:15;8.92;90.07
69084;SHT31;56185;48.526;9.044;2022-11-14T11:38:43;9.05;90.51
69084;SHT31;56185;48.526;9.044;2022-11-14T11:44:05;9.12;91.76
69084;SHT31;56185;48.526;9.044;2022-11-14T11:46:44;9.19;91.92
69084;SHT31;56185;48.526;9.044;2022-11-14T11:51:54;9.36;92.54
69084;SHT31;56185;48.526;9.044;2022-11-14T11:54:25;9.38;92.86
69084;SHT31;56185;48.526;9.044;2022-11-14T11:56:54;9.56;91.44
69084;SHT31;56185;48.526;9.044;2022-11-14T11:59:37;9.72;91.21
69084;SHT31;56185;48.526;9.044;2022-11-14T12:02:26;9.79;91.82
69084;SHT31;56185;48.526;9.044;2022-11-14T12:04:55;9.87;91.91
69084;SHT31;56185;48.526;9.044;2022-11-14T12:07:37;10.04;90.36
69084;SHT31;56185;48.526;9.044;2022-11-14T12:10:21;10.18;89.50
69084;SHT31;56185;48.526;9.044;2022-11-14T12:21:04;10.62;83.38
69084;SHT31;56185;48.526;9.044;2022-11-14T12:29:34;10.76;82.26
69084;SHT31;56185;48.526;9.044;2022-11-14T12:32:11;10.82;81.87
69084;SHT31;56185;48.526;9.044;2022-11-14T12:34:40;10.88;80.89
69084;SHT31;56185;48.526;9.044;2022-11-14T12:37:35;10.95;80.43
69084;SHT31;56185;48.526;9.044;2022-11-14T12:40:04;10.92;80.77
69084;SHT31;56185;48.526;9.044;2022-11-14T12:42:30;10.96;80.04
69084;SHT31;56185;48.526;9.044;2022-11-14T12:44:56;10.95;80.23
69084;SHT31;56185;48.526;9.044;2022-11-14T12:47:26;11.03;80.77
69084;SHT31;56185;48.526;9.044;2022-11-14T12:57:59;11.27;80.18
69084;SHT31;56185;48.526;9.044;2022-11-14T13:00:29;11.40;78.86
69084;SHT31;56185;48.526;9.044;2022-11-14T13:03:22;11.45;78.71
69084;SHT31;56185;48.526;9.044;2022-11-14T13:05:56;11.61;77.41
69084;SHT31;56185;48.526;9.044;2022-11-14T13:11:34;11.88;77.74
69084;SHT31;56185;48.526;9.044;2022-11-14T13:14:01;11.96;77.25
69084;SHT31;56185;48.526;9.044;2022-11-14T13:16:30;12.05;76.44
69084;SHT31;56185;48.526;9.044;2022-11-14T13:19:02;12.08;76.30
69084;SHT31;56185;48.526;9.044;2022-11-14T13:21:36;12.13;75.74
69084;SHT31;56185;48.526;9.044;2022-11-14T13:24:02;12.25;76.36
69084;SHT31;56185;48.526;9.044;2022-11-14T13:28:53;12.33;75.34
69084;SHT31;56185;48.526;9.044;2022-11-14T13:33:49;12.44;74.98
69084;SHT31;56185;48.526;9.044;2022-11-14T13:36:41;12.54;74.99
69084;SHT31;56185;48.526;9.044;2022-11-14T13:42:24;12.61;74.98
69084;SHT31;56185;48.526;9.044;2022-11-14T13:45:12;12.68;72.28
69084;SHT31;56185;48.526;9.044;2022-11-14T13:50:16;12.78;72.09
69084;SHT31;56185;48.526;9.044;2022-11-14T13:52:44;12.84;70.33
69084;SHT31;56185;48.526;9.044;2022-11-14T13:55:25;12.78;72.68
69084;SHT31;56185;48.526;9.044;2022-11-14T13:58:10;12.69;71.74
69084;SHT31;56185;48.526;9.044;2022-11-14T14:12:09;12.51;72.95
69084;SHT31;56185;48.526;9.044;2022-11-14T14:23:11;12.34;71.92
69084;SHT31;56185;48.526;9.044;2022-11-14T14:25:54;12.46;72.74
69084;SHT31;56185;48.526;9.044;2022-11-14T14:31:22;12.33;71.97
69084;SHT31;56185;48.526;9.044;2022-11-14T14:33:49;12.30;71.86
69084;SHT31;56185;48.526;9.044;2022-11-14T14:36:23;12.23;70.94
69084;SHT31;56185;48.526;9.044;2022-11-14T14:38:49;12.25;71.79
69084;SHT31;56185;48.526;9.044;2022-11-14T14:41:17;12.23;71.87
69084;SHT31;56185;48.526;9.044;2022-11-14T14:43:49;12.20;71.82
69084;SHT31;56185;48.526;9.044;2022-11-14T14:46:15;12.19;71.40
69084;SHT31;56185;48.526;9.044;2022-11-14T14:48:42;12.22;71.30
69084;SHT31;56185;48.526;9.044;2022-11-14T14:51:12;12.19;72.61
69084;SHT31;56185;48.526;9.044;2022-11-14T14:53:38;12.08;72.08
69084;SHT31;56185;48.526;9.044;2022-11-14T14:56:06;12.06;72.55
69084;SHT31;56185;48.526;9.044;2022-11-14T14:58:42;12.06;72.62
69084;SHT31;56185;48.526;9.044;2022-11-14T15:03:45;12.09;71.95
69084;SHT31;56185;48.526;9.044;2022-11-14T15:06:31;12.06;72.26
69084;SHT31;56185;48.526;9.044;2022-11-14T15:09:47;12.02;71.96
69084;SHT31;56185;48.526;9.044;2022-11-14T15:11:53;12.02;72.50
69084;SHT31;56185;48.526;9.044;2022-11-14T15:14:24;11.83;72.52
69084;SHT31;56185;48.526;9.044;2022-11-14T15:16:51;11.79;72.89
69084;SHT31;56185;48.526;9.044;2022-11-14T15:19:20;11.69;73.28
69084;SHT31;56185;48.526;9.044;2022-11-14T15:24:28;11.72;72.67
69084;SHT31;56185;48.526;9.044;2022-11-14T15:26:53;11.65;72.60
69084;SHT31;56185;48.526;9.044;2022-11-14T15:29:26;11.65;73.02
69084;SHT31;56185;48.526;9.044;2022-11-14T15:31:57;11.58;72.97
69084;SHT31;56185;48.526;9.044;2022-11-14T15:34:31;11.65;72.52
69084;SHT31;56185;48.526;9.044;2022-11-14T15:39:31;11.57;73.35
69084;SHT31;56185;48.526;9.044;2022-11-14T15:42:12;11.58;73.20
69084;SHT31;56185;48.526;9.044;2022-11-14T15:44:37;11.51;74.19
69084;SHT31;56185;48.526;9.044;2022-11-14T15:47:02;11.42;73.61
69084;SHT31;56185;48.526;9.044;2022-11-14T15:49:28;11.40;73.46
69084;SHT31;56185;48.526;9.044;2022-11-14T15:51:56;11.37;74.37
69084;SHT31;56185;48.526;9.044;2022-11-14T15:56:49;11.19;74.79
69084;SHT31;56185;48.526;9.044;2022-11-14T15:59:14;11.23;74.84
69084;SHT31;56185;48.526;9.044;2022-11-14T16:01:40;11.13;74.36
69084;SHT31;56185;48.526;9.044;2022-11-14T16:04:14;11.19;74.67
69084;SHT31;56185;48.526;9.044;2022-11-14T16:06:40;11.06;74.37
69084;SHT31;56185;48.526;9.044;2022-11-14T16:09:13;11.09;74.30
69084;SHT31;56185;48.526;9.044;2022-11-14T16:11:41;11.13;74.51
69084;SHT31;56185;48.526;9.044;2022-11-14T16:14:07;11.13;74.74
69084;SHT31;56185;48.526;9.044;2022-11-14T16:16:32;11.13;74.06
69084;SHT31;56185;48.526;9.044;2022-11-14T16:19:00;11.16;73.80
69084;SHT31;56185;48.526;9.044;2022-11-14T16:21:25;11.17;74.18
69084;SHT31;56185;48.526;9.044;2022-11-14T16:23:51;11.11;74.53
69084;SHT31;56185;48.526;9.044;2022-11-14T16:26:16;11.09;73.96
69084;SHT31;56185;48.526;9.044;2022-11-14T16:28:41;11.06;74.61
69084;SHT31;56185;48.526;9.044;2022-11-14T16:31:19;11.10;73.83
69084;SHT31;56185;48.526;9.044;2022-11-14T16:33:45;11.07;74.08
69084;SHT31;56185;48.526;9.044;2022-11-14T16:36:10;11.04;74.41
69084;SHT31;56185;48.526;9.044;2022-11-14T16:38:36;11.03;74.39
69084;SHT31;56185;48.526;9.044;2022-11-14T16:41:05;11.06;74.60
69084;SHT31;56185;48.526;9.044;2022-11-14T16:43:30;11.06;74.57
69084;SHT31;56185;48.526;9.044;2022-11-14T16:45:56;11.14;74.08
69084;SHT31;56185;48.526;9.044;2022-11-14T16:48:21;10.97;74.30
69084;SHT31;56185;48.526;9.044;2022-11-14T16:50:46;11.09;74.02
69084;SHT31;56185;48.526;9.044;2022-11-14T16:53:11;11.06;74.31
69084;SHT31;56185;48.526;9.044;2022-11-14T16:55:37;11.09;74.76
69084;SHT31;56185;48.526;9.044;2022-11-14T16:58:07;11.06;74.80
69084;SHT31;56185;48.526;9.044;2022-11-14T17:00:32;11.00;74.58
69084;SHT31;56185;48.526;9.044;2022-11-14T17:02:57;10.95;75.55
69084;SHT31;56185;48.526;9.044;2022-11-14T17:05:22;10.75;76.18
69084;SHT31;56185;48.526;9.044;2022-11-14T17:07:47;10.76;76.32
69084;SHT31;56185;48.526;9.044;2022-11-14T17:10:13;10.70;77.49
69084;SHT31;56185;48.526;9.044;2022-11-14T17:12:38;10.68;77.01
69084;SHT31;56185;48.526;9.044;2022-11-14T17:15:03;10.61;77.75
69084;SHT31;56185;48.526;9.044;2022-11-14T17:17:29;10.65;77.86
69084;SHT31;56185;48.526;9.044;2022-11-14T17:19:54;10.52;77.86
69084;SHT31;56185;48.526;9.044;2022-11-14T17:22:20;10.55;78.65
69084;SHT31;56185;48.526;9.044;2022-11-14T17:24:45;10.53;79.23
69084;SHT31;56185;48.526;9.044;2022-11-14T17:27:10;10.46;79.31
69084;SHT31;56185;48.526;9.044;2022-11-14T17:29:36;10.41;79.56